sensor_id;sensor_type;location;lat;lon;timestamp;pressure;altitude;pressure_sealevel;temperature
64947;BMP280;51469;52.150;4.682;2022-11-20T00:02:17;101635.78;;;4.72
64947;BMP280;51469;52.150;4.682;2022-11-20T00:04:42;101628.44;;;4.73
64947;BMP280;51469;52.150;4.682;2022-11-20T00:07:08;101634.19;;;4.71
64947;BMP280;51469;52.150;4.682;2022-11-20T00:09:33;101634.19;;;4.71
64947;BMP280;51469;52.150;4.682;2022-11-20T00:11:58;101634.03;;;4.68
64947;BMP280;51469;52.150;4.682;2022-11-20T00:14:24;101639.28;;;4.64
64947;BMP280;51469;52.150;4.682;2022-11-20T00:16:49;101642.13;;;4.59
64947;BMP280;51469;52.150;4.682;2022-11-20T00:19:14;101634.59;;;4.56
64947;BMP280;51469;52.150;4.682;2022-11-20T00:21:40;101632.50;;;4.53
64947;BMP280;51469;52.150;4.682;2022-11-20T00:24:08;101627.06;;;4.53
64947;BMP280;51469;52.150;4.682;2022-11-20T00:26:33;101621.63;;;4.53
64947;BMP280;51469;52.150;4.682;2022-11-20T00:29:00;101625.31;;;4.49
64947;BMP280;51469;52.150;4.682;2022-11-20T00:31:26;101620.78;;;4.44
64947;BMP280;51469;52.150;4.682;2022-11-20T00:33:52;101624.13;;;4.41
64947;BMP280;51469;52.150;4.682;2022-11-20T00:36:20;101628.06;;;4.35
64947;BMP280;51469;52.150;4.682;2022-11-20T00:38:45;101633.66;;;4.30
64947;BMP280;51469;52.150;4.682;2022-11-20T00:41:13;101639.72;;;4.27
64947;BMP280;51469;52.150;4.682;2022-11-20T00:43:39;101633.78;;;4.25
64947;BMP280;51469;52.150;4.682;2022-11-20T00:46:07;101626.88;;;4.19
64947;BMP280;51469;52.150;4.682;2022-11-20T00:48:32;101619.13;;;4.13
64947;BMP280;51469;52.150;4.682;2022-11-20T00:50:58;101619.28;;;4.08
64947;BMP280;51469;52.150;4.682;2022-11-20T00:53:24;101624.00;;;4.02
64947;BMP280;51469;52.150;4.682;2022-11-20T00:55:57;101621.81;;;4.04
64947;BMP280;51469;52.150;4.682;2022-11-20T00:58:24;101619.69;;;4.01
64947;BMP280;51469;52.150;4.682;2022-11-20T01:00:50;101607.84;;;3.97
64947;BMP280;51469;52.150;4.682;2022-11-20T01:03:19;101601.91;;;3.95
64947;BMP280;51469;52.150;4.682;2022-11-20T01:05:44;101600.81;;;3.96
64947;BMP280;51469;52.150;4.682;2022-11-20T01:08:09;101610.66;;;3.92
64947;BMP280;51469;52.150;4.682;2022-11-20T01:10:36;101609.06;;;3.91
64947;BMP280;51469;52.150;4.682;2022-11-20T01:13:01;101602.66;;;3.87
64947;BMP280;51469;52.150;4.682;2022-11-20T01:15:45;101597.53;;;3.86
64947;BMP280;51469;52.150;4.682;2022-11-20T01:18:10;101603.28;;;3.84
64947;BMP280;51469;52.150;4.682;2022-11-20T01:20:36;101594.63;;;3.82
64947;BMP280;51469;52.150;4.682;2022-11-20T01:23:02;101604.97;;;3.80
64947;BMP280;51469;52.150;4.682;2022-11-20T01:25:28;101611.53;;;3.79
64947;BMP280;51469;52.150;4.682;2022-11-20T01:27:54;101595.66;;;3.73
64947;BMP280;51469;52.150;4.682;2022-11-20T01:30:19;101592.88;;;3.64
64947;BMP280;51469;52.150;4.682;2022-11-20T01:32:44;101609.03;;;3.69
64947;BMP280;51469;52.150;4.682;2022-11-20T01:35:10;101603.59;;;3.69
64947;BMP280;51469;52.150;4.682;2022-11-20T01:37:35;101599.13;;;3.65
64947;BMP280;51469;52.150;4.682;2022-11-20T01:40:01;101597.50;;;3.64
64947;BMP280;51469;52.150;4.682;2022-11-20T01:42:26;101586.66;;;3.64
64947;BMP280;51469;52.150;4.682;2022-11-20T01:45:52;101582.03;;;3.64
64947;BMP280;51469;52.150;4.682;2022-11-20T01:48:22;101585.25;;;3.66
64947;BMP280;51469;52.150;4.682;2022-11-20T01:50:49;101580.91;;;3.65
64947;BMP280;51469;52.150;4.682;2022-11-20T01:53:18;101583.16;;;3.63
64947;BMP280;51469;52.150;4.682;2022-11-20T01:55:51;101587.25;;;3.61
64947;BMP280;51469;52.150;4.682;2022-11-20T01:58:21;101594.09;;;3.58
64947;BMP280;51469;52.150;4.682;2022-11-20T02:00:48;101589.00;;;3.57
64947;BMP280;51469;52.150;4.682;2022-11-20T02:03:16;101587.16;;;3.52
64947;BMP280;51469;52.150;4.682;2022-11-20T02:05:47;101596.94;;;3.53
64947;BMP280;51469;52.150;4.682;2022-11-20T02:08:15;101587.47;;;3.51
64947;BMP280;51469;52.150;4.682;2022-11-20T02:10:40;101590.47;;;3.49
64947;BMP280;51469;52.150;4.682;2022-11-20T02:13:06;101585.66;;;3.46
64947;BMP280;51469;52.150;4.682;2022-11-20T02:15:50;101594.09;;;3.45
64947;BMP280;51469;52.150;4.682;2022-11-20T02:18:17;101595.72;;;3.46
64947;BMP280;51469;52.150;4.682;2022-11-20T02:20:45;101596.53;;;3.46
64947;BMP280;51469;52.150;4.682;2022-11-20T02:23:14;101580.25;;;3.46
64947;BMP280;51469;52.150;4.682;2022-11-20T02:25:41;101581.72;;;3.52
64947;BMP280;51469;52.150;4.682;2022-11-20T02:28:08;101582.84;;;3.51
64947;BMP280;51469;52.150;4.682;2022-11-20T02:30:33;101591.97;;;3.55
64947;BMP280;51469;52.150;4.682;2022-11-20T02:32:58;101586.06;;;3.53
64947;BMP280;51469;52.150;4.682;2022-11-20T02:37:58;101591.09;;;3.46
64947;BMP280;51469;52.150;4.682;2022-11-20T02:40:25;101584.06;;;3.45
64947;BMP280;51469;52.150;4.682;2022-11-20T02:42:54;101583.59;;;3.43
64947;BMP280;51469;52.150;4.682;2022-11-20T02:45:20;101587.41;;;3.42
64947;BMP280;51469;52.150;4.682;2022-11-20T02:47:45;101574.44;;;3.39
64947;BMP280;51469;52.150;4.682;2022-11-20T02:50:10;101562.78;;;3.39
64947;BMP280;51469;52.150;4.682;2022-11-20T02:52:36;101573.63;;;3.39
64947;BMP280;51469;52.150;4.682;2022-11-20T02:55:01;101569.03;;;3.39
64947;BMP280;51469;52.150;4.682;2022-11-20T02:57:27;101567.72;;;3.37
64947;BMP280;51469;52.150;4.682;2022-11-20T02:59:53;101561.00;;;3.34
64947;BMP280;51469;52.150;4.682;2022-11-20T03:02:18;101567.03;;;3.31
64947;BMP280;51469;52.150;4.682;2022-11-20T03:04:43;101563.81;;;3.29
64947;BMP280;51469;52.150;4.682;2022-11-20T03:07:09;101562.00;;;3.25
64947;BMP280;51469;52.150;4.682;2022-11-20T03:09:35;101561.19;;;3.24
64947;BMP280;51469;52.150;4.682;2022-11-20T03:12:00;101555.28;;;3.22
64947;BMP280;51469;52.150;4.682;2022-11-20T03:14:25;101547.53;;;3.29
64947;BMP280;51469;52.150;4.682;2022-11-20T03:16:51;101539.81;;;3.36
64947;BMP280;51469;52.150;4.682;2022-11-20T03:19:16;101539.50;;;3.38
64947;BMP280;51469;52.150;4.682;2022-11-20T03:21:41;101538.22;;;3.35
64947;BMP280;51469;52.150;4.682;2022-11-20T03:24:07;101525.22;;;3.32
64947;BMP280;51469;52.150;4.682;2022-11-20T03:26:32;101532.88;;;3.30
64947;BMP280;51469;52.150;4.682;2022-11-20T03:29:00;101528.03;;;3.27
64947;BMP280;51469;52.150;4.682;2022-11-20T03:31:28;101522.63;;;3.27
64947;BMP280;51469;52.150;4.682;2022-11-20T03:33:53;101511.78;;;3.27
64947;BMP280;51469;52.150;4.682;2022-11-20T03:36:20;101520.03;;;3.22
64947;BMP280;51469;52.150;4.682;2022-11-20T03:38:47;101515.84;;;3.16
64947;BMP280;51469;52.150;4.682;2022-11-20T03:41:24;101512.63;;;3.14
64947;BMP280;51469;52.150;4.682;2022-11-20T03:43:55;101509.59;;;3.16
64947;BMP280;51469;52.150;4.682;2022-11-20T03:46:21;101518.56;;;3.16
64947;BMP280;51469;52.150;4.682;2022-11-20T03:48:47;101511.03;;;3.13
64947;BMP280;51469;52.150;4.682;2022-11-20T03:51:24;101504.00;;;3.12
64947;BMP280;51469;52.150;4.682;2022-11-20T03:53:51;101511.63;;;3.10
64947;BMP280;51469;52.150;4.682;2022-11-20T03:56:20;101493.75;;;3.09
64947;BMP280;51469;52.150;4.682;2022-11-20T03:58:47;101486.75;;;3.08
64947;BMP280;51469;52.150;4.682;2022-11-20T04:01:14;101482.44;;;3.07
64947;BMP280;51469;52.150;4.682;2022-11-20T04:03:41;101488.84;;;3.11
64947;BMP280;51469;52.150;4.682;2022-11-20T04:06:12;101495.19;;;3.07
64947;BMP280;51469;52.150;4.682;2022-11-20T04:08:38;101505.41;;;3.10
64947;BMP280;51469;52.150;4.682;2022-11-20T04:11:28;101508.41;;;3.08
64947;BMP280;51469;52.150;4.682;2022-11-20T04:13:56;101502.50;;;3.06
64947;BMP280;51469;52.150;4.682;2022-11-20T04:16:23;101505.72;;;3.08
64947;BMP280;51469;52.150;4.682;2022-11-20T04:18:56;101498.09;;;3.10
64947;BMP280;51469;52.150;4.682;2022-11-20T04:21:22;101488.31;;;3.09
64947;BMP280;51469;52.150;4.682;2022-11-20T04:23:49;101479.09;;;3.10
64947;BMP280;51469;52.150;4.682;2022-11-20T04:26:14;101476.81;;;3.17
64947;BMP280;51469;52.150;4.682;2022-11-20T04:28:40;101473.44;;;3.20
64947;BMP280;51469;52.150;4.682;2022-11-20T04:31:08;101468.03;;;3.20
64947;BMP280;51469;52.150;4.682;2022-11-20T04:33:35;101462.59;;;3.20
64947;BMP280;51469;52.150;4.682;2022-11-20T04:36:12;101463.72;;;3.19
64947;BMP280;51469;52.150;4.682;2022-11-20T04:38:38;101466.91;;;3.21
64947;BMP280;51469;52.150;4.682;2022-11-20T04:41:05;101464.19;;;3.21
64947;BMP280;51469;52.150;4.682;2022-11-20T04:43:31;101457.97;;;3.21
64947;BMP280;51469;52.150;4.682;2022-11-20T04:45:58;101457.19;;;3.20
64947;BMP280;51469;52.150;4.682;2022-11-20T04:48:24;101450.34;;;3.23
64947;BMP280;51469;52.150;4.682;2022-11-20T04:50:51;101440.91;;;3.20
64947;BMP280;51469;52.150;4.682;2022-11-20T04:53:16;101452.09;;;3.19
64947;BMP280;51469;52.150;4.682;2022-11-20T04:55:42;101450.94;;;3.20
64947;BMP280;51469;52.150;4.682;2022-11-20T04:58:07;101456.72;;;3.18
64947;BMP280;51469;52.150;4.682;2022-11-20T05:00:33;101451.59;;;3.17
64947;BMP280;51469;52.150;4.682;2022-11-20T05:02:58;101449.78;;;3.12
64947;BMP280;51469;52.150;4.682;2022-11-20T05:05:23;101448.38;;;3.15
64947;BMP280;51469;52.150;4.682;2022-11-20T05:07:49;101453.50;;;3.16
64947;BMP280;51469;52.150;4.682;2022-11-20T05:10:15;101449.69;;;3.17
64947;BMP280;51469;52.150;4.682;2022-11-20T05:12:40;101463.25;;;3.17
64947;BMP280;51469;52.150;4.682;2022-11-20T05:15:09;101462.59;;;3.20
64947;BMP280;51469;52.150;4.682;2022-11-20T05:17:34;101451.75;;;3.20
64947;BMP280;51469;52.150;4.682;2022-11-20T05:19:59;101453.34;;;3.21
64947;BMP280;51469;52.150;4.682;2022-11-20T05:22:25;101449.56;;;3.22
64947;BMP280;51469;52.150;4.682;2022-11-20T05:24:50;101451.75;;;3.20
64947;BMP280;51469;52.150;4.682;2022-11-20T05:27:16;101447.47;;;3.19
64947;BMP280;51469;52.150;4.682;2022-11-20T05:29:41;101460.88;;;3.24
64947;BMP280;51469;52.150;4.682;2022-11-20T05:32:06;101441.16;;;3.10
64947;BMP280;51469;52.150;4.682;2022-11-20T05:34:34;101466.06;;;3.34
64947;BMP280;51469;52.150;4.682;2022-11-20T05:37:00;101459.78;;;3.47
64947;BMP280;51469;52.150;4.682;2022-11-20T05:39:25;101463.06;;;3.58
64947;BMP280;51469;52.150;4.682;2022-11-20T05:41:50;101469.22;;;3.72
64947;BMP280;51469;52.150;4.682;2022-11-20T05:44:36;101464.56;;;3.86
64947;BMP280;51469;52.150;4.682;2022-11-20T05:47:01;101454.22;;;3.96
64947;BMP280;51469;52.150;4.682;2022-11-20T05:49:26;101446.44;;;4.03
64947;BMP280;51469;52.150;4.682;2022-11-20T05:51:51;101447.63;;;4.19
64947;BMP280;51469;52.150;4.682;2022-11-20T05:54:17;101447.38;;;4.29
64947;BMP280;51469;52.150;4.682;2022-11-20T05:56:42;101433.00;;;4.37
64947;BMP280;51469;52.150;4.682;2022-11-20T05:59:08;101440.53;;;4.40
64947;BMP280;51469;52.150;4.682;2022-11-20T06:01:33;101434.97;;;4.45
64947;BMP280;51469;52.150;4.682;2022-11-20T06:04:01;101440.56;;;4.49
64947;BMP280;51469;52.150;4.682;2022-11-20T06:06:26;101443.44;;;4.52
64947;BMP280;51469;52.150;4.682;2022-11-20T06:08:51;101437.88;;;4.57
64947;BMP280;51469;52.150;4.682;2022-11-20T06:11:17;101441.34;;;4.58
64947;BMP280;51469;52.150;4.682;2022-11-20T06:13:43;101426.53;;;4.64
64947;BMP280;51469;52.150;4.682;2022-11-20T06:16:10;101422.06;;;4.77
64947;BMP280;51469;52.150;4.682;2022-11-20T06:18:36;101422.06;;;4.77
64947;BMP280;51469;52.150;4.682;2022-11-20T06:21:09;101419.97;;;4.73
64947;BMP280;51469;52.150;4.682;2022-11-20T06:23:36;101419.47;;;4.71
64947;BMP280;51469;52.150;4.682;2022-11-20T06:26:13;101393.75;;;4.60
64947;BMP280;51469;52.150;4.682;2022-11-20T06:28:38;101411.34;;;4.71
64947;BMP280;51469;52.150;4.682;2022-11-20T06:31:05;101404.94;;;4.67
64947;BMP280;51469;52.150;4.682;2022-11-20T06:33:30;101404.31;;;4.70
64947;BMP280;51469;52.150;4.682;2022-11-20T06:35:57;101397.25;;;4.69
64947;BMP280;51469;52.150;4.682;2022-11-20T06:38:24;101401.13;;;4.68
64947;BMP280;51469;52.150;4.682;2022-11-20T06:40:49;101408.28;;;4.64
64947;BMP280;51469;52.150;4.682;2022-11-20T06:43:14;101405.09;;;4.71
64947;BMP280;51469;52.150;4.682;2022-11-20T06:45:40;101409.28;;;4.68
64947;BMP280;51469;52.150;4.682;2022-11-20T06:48:05;101394.38;;;4.66
64947;BMP280;51469;52.150;4.682;2022-11-20T06:50:30;101406.22;;;4.61
64947;BMP280;51469;52.150;4.682;2022-11-20T06:52:56;101393.91;;;4.55
64947;BMP280;51469;52.150;4.682;2022-11-20T06:55:21;101407.81;;;4.62
64947;BMP280;51469;52.150;4.682;2022-11-20T06:57:46;101400.78;;;4.61
64947;BMP280;51469;52.150;4.682;2022-11-20T07:00:12;101393.75;;;4.60
64947;BMP280;51469;52.150;4.682;2022-11-20T07:02:38;101395.50;;;4.65
64947;BMP280;51469;52.150;4.682;2022-11-20T07:05:03;101388.19;;;4.65
64947;BMP280;51469;52.150;4.682;2022-11-20T07:07:28;101386.25;;;4.66
64947;BMP280;51469;52.150;4.682;2022-11-20T07:09:54;101380.81;;;4.66
64947;BMP280;51469;52.150;4.682;2022-11-20T07:12:19;101390.91;;;4.65
64947;BMP280;51469;52.150;4.682;2022-11-20T07:14:45;101399.81;;;4.74
64947;BMP280;51469;52.150;4.682;2022-11-20T07:17:11;101401.75;;;4.83
64947;BMP280;51469;52.150;4.682;2022-11-20T07:19:36;101401.16;;;4.86
64947;BMP280;51469;52.150;4.682;2022-11-20T07:22:02;101401.16;;;4.86
64947;BMP280;51469;52.150;4.682;2022-11-20T07:24:27;101395.22;;;4.92
64947;BMP280;51469;52.150;4.682;2022-11-20T07:26:52;101399.84;;;4.92
64947;BMP280;51469;52.150;4.682;2022-11-20T07:29:17;101400.78;;;4.96
64947;BMP280;51469;52.150;4.682;2022-11-20T07:31:43;101391.53;;;4.88
64947;BMP280;51469;52.150;4.682;2022-11-20T07:34:08;101405.13;;;5.05
64947;BMP280;51469;52.150;4.682;2022-11-20T07:36:34;101399.84;;;5.09
64947;BMP280;51469;52.150;4.682;2022-11-20T07:39:00;101393.13;;;5.15
64947;BMP280;51469;52.150;4.682;2022-11-20T07:41:25;101395.19;;;5.26
64947;BMP280;51469;52.150;4.682;2022-11-20T07:43:50;101387.97;;;5.30
64947;BMP280;51469;52.150;4.682;2022-11-20T07:46:16;101387.19;;;5.30
64947;BMP280;51469;52.150;4.682;2022-11-20T07:48:41;101386.56;;;5.33
64947;BMP280;51469;52.150;4.682;2022-11-20T07:51:07;101383.19;;;5.36
64947;BMP280;51469;52.150;4.682;2022-11-20T07:53:32;101398.50;;;5.49
64947;BMP280;51469;52.150;4.682;2022-11-20T07:56:01;101389.88;;;5.47
64947;BMP280;51469;52.150;4.682;2022-11-20T07:58:29;101392.41;;;5.52
64947;BMP280;51469;52.150;4.682;2022-11-20T08:00:54;101390.16;;;5.54
64947;BMP280;51469;52.150;4.682;2022-11-20T08:03:20;101398.16;;;5.59
64947;BMP280;51469;52.150;4.682;2022-11-20T08:05:45;101390.16;;;5.54
64947;BMP280;51469;52.150;4.682;2022-11-20T08:08:10;101394.78;;;5.62
64947;BMP280;51469;52.150;4.682;2022-11-20T08:10:36;101384.38;;;5.64
64947;BMP280;51469;52.150;4.682;2022-11-20T08:13:01;101404.84;;;5.70
64947;BMP280;51469;52.150;4.682;2022-11-20T08:15:49;101412.38;;;5.73
64947;BMP280;51469;52.150;4.682;2022-11-20T08:18:18;101411.25;;;5.74
64947;BMP280;51469;52.150;4.682;2022-11-20T08:20:44;101407.88;;;5.68
64947;BMP280;51469;52.150;4.682;2022-11-20T08:23:09;101404.06;;;5.69
64947;BMP280;51469;52.150;4.682;2022-11-20T08:25:36;101388.81;;;5.77
64947;BMP280;51469;52.150;4.682;2022-11-20T08:28:04;101386.59;;;5.79
64947;BMP280;51469;52.150;4.682;2022-11-20T08:30:31;101387.34;;;5.88
64947;BMP280;51469;52.150;4.682;2022-11-20T08:33:03;101372.13;;;5.87
64947;BMP280;51469;52.150;4.682;2022-11-20T08:35:32;101371.38;;;5.78
64947;BMP280;51469;52.150;4.682;2022-11-20T08:37:58;101372.44;;;5.85
64947;BMP280;51469;52.150;4.682;2022-11-20T08:40:23;101378.94;;;6.01
64947;BMP280;51469;52.150;4.682;2022-11-20T08:42:50;101375.25;;;6.06
64947;BMP280;51469;52.150;4.682;2022-11-20T08:45:16;101379.19;;;6.17
64947;BMP280;51469;52.150;4.682;2022-11-20T08:47:43;101377.53;;;6.24
64947;BMP280;51469;52.150;4.682;2022-11-20T08:50:10;101375.44;;;6.30
64947;BMP280;51469;52.150;4.682;2022-11-20T08:52:35;101368.00;;;6.39
64947;BMP280;51469;52.150;4.682;2022-11-20T08:55:01;101373.28;;;6.44
64947;BMP280;51469;52.150;4.682;2022-11-20T08:57:26;101377.03;;;6.51
64947;BMP280;51469;52.150;4.682;2022-11-20T08:59:51;101369.19;;;6.50
64947;BMP280;51469;52.150;4.682;2022-11-20T09:02:17;101365.31;;;6.51
64947;BMP280;51469;52.150;4.682;2022-11-20T09:04:42;101373.72;;;6.66
64947;BMP280;51469;52.150;4.682;2022-11-20T09:07:07;101371.16;;;6.70
64947;BMP280;51469;52.150;4.682;2022-11-20T09:09:33;101365.03;;;6.73
64947;BMP280;51469;52.150;4.682;2022-11-20T09:11:58;101361.88;;;6.83
64947;BMP280;51469;52.150;4.682;2022-11-20T09:14:24;101357.09;;;6.80
64947;BMP280;51469;52.150;4.682;2022-11-20T09:16:55;101367.13;;;6.88
64947;BMP280;51469;52.150;4.682;2022-11-20T09:19:20;101368.03;;;6.92
64947;BMP280;51469;52.150;4.682;2022-11-20T09:21:45;101365.31;;;6.92
64947;BMP280;51469;52.150;4.682;2022-11-20T09:24:11;101348.84;;;6.89
64947;BMP280;51469;52.150;4.682;2022-11-20T09:26:36;101337.41;;;6.95
64947;BMP280;51469;52.150;4.682;2022-11-20T09:29:01;101334.97;;;6.94
64947;BMP280;51469;52.150;4.682;2022-11-20T09:31:27;101332.16;;;7.02
64947;BMP280;51469;52.150;4.682;2022-11-20T10:07:14;101290.00;;;5.39
64947;BMP280;51469;52.150;4.682;2022-11-20T10:09:49;101280.25;;;6.25
64947;BMP280;51469;52.150;4.682;2022-11-20T10:26:01;101252.66;;;7.72
64947;BMP280;51469;52.150;4.682;2022-11-20T10:31:30;101239.41;;;7.86
64947;BMP280;51469;52.150;4.682;2022-11-20T10:33:59;101224.66;;;7.87
64947;BMP280;51469;52.150;4.682;2022-11-20T10:36:28;101228.25;;;7.91
64947;BMP280;51469;52.150;4.682;2022-11-20T10:38:59;101216.41;;;7.99
64947;BMP280;51469;52.150;4.682;2022-11-20T10:41:27;101217.06;;;8.08
64947;BMP280;51469;52.150;4.682;2022-11-20T10:44:11;101196.59;;;8.02
64947;BMP280;51469;52.150;4.682;2022-11-20T10:46:44;101196.16;;;8.00
64947;BMP280;51469;52.150;4.682;2022-11-20T10:49:18;101190.09;;;8.07
64947;BMP280;51469;52.150;4.682;2022-11-20T10:57:23;101169.06;;;7.95
64947;BMP280;51469;52.150;4.682;2022-11-20T11:00:06;101157.44;;;7.98
64947;BMP280;51469;52.150;4.682;2022-11-20T11:02:35;101147.09;;;7.92
64947;BMP280;51469;52.150;4.682;2022-11-20T11:05:14;101156.16;;;8.08
64947;BMP280;51469;52.150;4.682;2022-11-20T11:07:41;101146.84;;;8.24
64947;BMP280;51469;52.150;4.682;2022-11-20T11:10:18;101140.75;;;8.15
64947;BMP280;51469;52.150;4.682;2022-11-20T11:12:47;101136.03;;;8.00
64947;BMP280;51469;52.150;4.682;2022-11-20T11:15:36;101138.63;;;8.24
64947;BMP280;51469;52.150;4.682;2022-11-20T11:18:02;101160.50;;;8.24
64947;BMP280;51469;52.150;4.682;2022-11-20T11:20:28;101134.63;;;8.06
64947;BMP280;51469;52.150;4.682;2022-11-20T11:22:55;101140.06;;;8.18
64947;BMP280;51469;52.150;4.682;2022-11-20T11:25:29;101124.16;;;8.08
64947;BMP280;51469;52.150;4.682;2022-11-20T11:27:58;101116.91;;;8.00
64947;BMP280;51469;52.150;4.682;2022-11-20T11:30:25;101119.66;;;8.00
64947;BMP280;51469;52.150;4.682;2022-11-20T11:33:02;101111.53;;;8.04
64947;BMP280;51469;52.150;4.682;2022-11-20T11:35:28;101100.03;;;8.10
64947;BMP280;51469;52.150;4.682;2022-11-20T11:38:06;101094.06;;;8.20
64947;BMP280;51469;52.150;4.682;2022-11-20T11:40:34;101087.84;;;8.23
64947;BMP280;51469;52.150;4.682;2022-11-20T11:43:04;101083.78;;;8.17
64947;BMP280;51469;52.150;4.682;2022-11-20T11:45:30;101077.13;;;8.30
64947;BMP280;51469;52.150;4.682;2022-11-20T11:48:01;101069.94;;;8.26
64947;BMP280;51469;52.150;4.682;2022-11-20T11:50:29;101058.31;;;8.29
64947;BMP280;51469;52.150;4.682;2022-11-20T11:53:13;101058.59;;;8.39
64947;BMP280;51469;52.150;4.682;2022-11-20T11:55:49;101053.38;;;8.34
64947;BMP280;51469;52.150;4.682;2022-11-20T11:58:46;101048.81;;;8.38
64947;BMP280;51469;52.150;4.682;2022-11-20T12:06:51;101025.34;;;8.37
64947;BMP280;51469;52.150;4.682;2022-11-20T12:09:20;101025.25;;;8.49
64947;BMP280;51469;52.150;4.682;2022-11-20T12:12:27;101004.91;;;8.47
64947;BMP280;51469;52.150;4.682;2022-11-20T12:14:55;101003.13;;;8.39
64947;BMP280;51469;52.150;4.682;2022-11-20T12:17:21;100987.78;;;8.34
64947;BMP280;51469;52.150;4.682;2022-11-20T12:19:46;100979.59;;;8.34
64947;BMP280;51469;52.150;4.682;2022-11-20T12:33:34;100971.19;;;8.43
64947;BMP280;51469;52.150;4.682;2022-11-20T12:47:45;100980.22;;;8.62
64947;BMP280;51469;52.150;4.682;2022-11-20T12:59:06;100958.00;;;8.79
64947;BMP280;51469;52.150;4.682;2022-11-20T13:01:55;100956.25;;;8.71
64947;BMP280;51469;52.150;4.682;2022-11-20T13:07:17;100949.25;;;8.74
64947;BMP280;51469;52.150;4.682;2022-11-20T13:09:48;100943.72;;;8.70
64947;BMP280;51469;52.150;4.682;2022-11-20T13:12:24;100949.34;;;8.77
64947;BMP280;51469;52.150;4.682;2022-11-20T13:14:52;100946.88;;;8.72
64947;BMP280;51469;52.150;4.682;2022-11-20T13:17:32;100929.59;;;8.68
64947;BMP280;51469;52.150;4.682;2022-11-20T13:19:59;100924.41;;;8.63
64947;BMP280;51469;52.150;4.682;2022-11-20T13:22:29;100910.75;;;8.63
64947;BMP280;51469;52.150;4.682;2022-11-20T13:24:55;100906.13;;;8.67
64947;BMP280;51469;52.150;4.682;2022-11-20T13:27:22;100882.69;;;8.66
64947;BMP280;51469;52.150;4.682;2022-11-20T13:30:11;100879.34;;;8.57
64947;BMP280;51469;52.150;4.682;2022-11-20T13:32:47;100883.34;;;8.60
64947;BMP280;51469;52.150;4.682;2022-11-20T13:35:25;100888.44;;;8.80
64947;BMP280;51469;52.150;4.682;2022-11-20T13:38:07;100876.75;;;8.83
64947;BMP280;51469;52.150;4.682;2022-11-20T13:40:39;100877.50;;;8.80
64947;BMP280;51469;52.150;4.682;2022-11-20T13:43:23;100884.53;;;8.81
64947;BMP280;51469;52.150;4.682;2022-11-20T13:46:06;100882.41;;;8.90
64947;BMP280;51469;52.150;4.682;2022-11-20T13:48:33;100871.47;;;8.90
64947;BMP280;51469;52.150;4.682;2022-11-20T13:51:07;100863.19;;;8.68
64947;BMP280;51469;52.150;4.682;2022-11-20T13:56:37;100861.22;;;8.87
64947;BMP280;51469;52.150;4.682;2022-11-20T13:59:14;100855.69;;;8.84
64947;BMP280;51469;52.150;4.682;2022-11-20T14:01:45;100856.19;;;8.70
64947;BMP280;51469;52.150;4.682;2022-11-20T14:04:17;100849.84;;;8.85
64947;BMP280;51469;52.150;4.682;2022-11-20T14:06:45;100847.03;;;8.82
64947;BMP280;51469;52.150;4.682;2022-11-20T14:09:23;100850.28;;;8.87
64947;BMP280;51469;52.150;4.682;2022-11-20T14:11:49;100849.56;;;8.90
64947;BMP280;51469;52.150;4.682;2022-11-20T14:14:28;100841.94;;;8.99
64947;BMP280;51469;52.150;4.682;2022-11-20T14:19:44;100828.00;;;9.08
64947;BMP280;51469;52.150;4.682;2022-11-20T14:22:18;100830.31;;;9.06
64947;BMP280;51469;52.150;4.682;2022-11-20T14:24:44;100808.22;;;8.95
64947;BMP280;51469;52.150;4.682;2022-11-20T14:27:14;100804.00;;;9.01
64947;BMP280;51469;52.150;4.682;2022-11-20T14:29:41;100795.13;;;9.04
64947;BMP280;51469;52.150;4.682;2022-11-20T14:32:09;100791.81;;;8.95
64947;BMP280;51469;52.150;4.682;2022-11-20T14:34:38;100778.63;;;9.01
64947;BMP280;51469;52.150;4.682;2022-11-20T14:37:09;100763.94;;;9.09
64947;BMP280;51469;52.150;4.682;2022-11-20T14:39:37;100757.34;;;9.13
64947;BMP280;51469;52.150;4.682;2022-11-20T14:42:15;100749.13;;;9.13
64947;BMP280;51469;52.150;4.682;2022-11-20T14:44:40;100733.56;;;9.17
64947;BMP280;51469;52.150;4.682;2022-11-20T14:47:11;100731.28;;;9.23
64947;BMP280;51469;52.150;4.682;2022-11-20T14:49:38;100739.13;;;9.24
64947;BMP280;51469;52.150;4.682;2022-11-20T14:52:24;100749.44;;;9.31
64947;BMP280;51469;52.150;4.682;2022-11-20T14:54:57;100740.94;;;9.39
64947;BMP280;51469;52.150;4.682;2022-11-20T14:57:31;100741.31;;;9.38
64947;BMP280;51469;52.150;4.682;2022-11-20T15:00:23;100741.25;;;9.34
64947;BMP280;51469;52.150;4.682;2022-11-20T15:02:50;100730.59;;;9.29
64947;BMP280;51469;52.150;4.682;2022-11-20T15:05:18;100728.00;;;9.36
64947;BMP280;51469;52.150;4.682;2022-11-20T15:07:46;100702.53;;;9.32
64947;BMP280;51469;52.150;4.682;2022-11-20T15:12:59;100695.34;;;9.24
64947;BMP280;51469;52.150;4.682;2022-11-20T15:15:35;100697.25;;;9.20
64947;BMP280;51469;52.150;4.682;2022-11-20T15:18:01;100688.47;;;9.34
64947;BMP280;51469;52.150;4.682;2022-11-20T15:20:29;100686.19;;;9.39
64947;BMP280;51469;52.150;4.682;2022-11-20T15:22:55;100673.91;;;9.30
64947;BMP280;51469;52.150;4.682;2022-11-20T15:25:20;100668.50;;;9.33
64947;BMP280;51469;52.150;4.682;2022-11-20T15:27:48;100671.25;;;9.33
64947;BMP280;51469;52.150;4.682;2022-11-20T15:30:17;100666.66;;;9.41
64947;BMP280;51469;52.150;4.682;2022-11-20T15:32:43;100671.44;;;9.47
64947;BMP280;51469;52.150;4.682;2022-11-20T15:35:10;100675.16;;;9.32
64947;BMP280;51469;52.150;4.682;2022-11-20T15:37:36;100676.63;;;9.26
64947;BMP280;51469;52.150;4.682;2022-11-20T15:40:02;100672.47;;;9.36
64947;BMP280;51469;52.150;4.682;2022-11-20T15:42:27;100664.91;;;9.29
64947;BMP280;51469;52.150;4.682;2022-11-20T15:44:53;100672.09;;;9.37
64947;BMP280;51469;52.150;4.682;2022-11-20T15:47:20;100662.72;;;9.38
64947;BMP280;51469;52.150;4.682;2022-11-20T15:49:48;100664.28;;;9.39
64947;BMP280;51469;52.150;4.682;2022-11-20T15:52:14;100659.72;;;9.47
64947;BMP280;51469;52.150;4.682;2022-11-20T15:54:40;100654.28;;;9.51
64947;BMP280;51469;52.150;4.682;2022-11-20T15:57:05;100650.47;;;9.59
64947;BMP280;51469;52.150;4.682;2022-11-20T15:59:31;100652.06;;;9.60
64947;BMP280;51469;52.150;4.682;2022-11-20T16:01:56;100652.91;;;9.64
64947;BMP280;51469;52.150;4.682;2022-11-20T16:04:21;100648.66;;;9.70